Time;durP1;ratioP1;P1;durP2;ratioP2;P2;SDS_P1;SDS_P2;PMS_P1;PMS_P2;Temp;Humidity;BMP_temperature;BMP_pressure;BME280_temperature;BME280_humidity;BME280_pressure;Samples;Min_cycle;Max_cycle;Signal;HPM_P1;HPM_P2
2022/07/01 06:10:34;;;;;;;3.42;2.95;;;;;;;24.79;60.69;100226.45;1717237;82;21579;-41
2022/07/01 06:13:02;;;;;;;12.58;3.25;;;;;;;24.91;59.77;100215.86;1639851;86;21187;-41
2022/07/01 06:15:29;;;;;;;4.08;3.08;;;;;;;25.02;58.77;100220.57;1646975;86;21045;-48
2022/07/01 06:17:56;;;;;;;8.88;3.20;;;;;;;25.11;58.32;100217.38;1640313;87;21180;-41
2022/07/01 06:20:23;;;;;;;3.45;3.00;;;;;;;25.20;57.07;100221.28;1638963;87;21065;-49
2022/07/01 06:22:49;;;;;;;5.35;2.52;;;;;;;25.28;56.63;100220.35;1638940;87;21667;-49
2022/07/01 06:25:16;;;;;;;10.63;3.00;;;;;;;25.36;55.84;100222.06;1639026;86;21644;-41
2022/07/01 06:27:43;;;;;;;4.25;2.27;;;;;;;25.46;56.51;100221.88;1638753;87;21498;-41
2022/07/01 06:30:13;;;;;;;8.13;2.95;;;;;;;25.52;53.40;100225.98;1638586;87;21101;-48
2022/07/01 06:32:40;;;;;;;3.62;2.40;;;;;;;25.58;53.70;100222.91;1638785;87;21101;-41
2022/07/01 06:35:08;;;;;;;4.67;2.45;;;;;;;25.62;54.01;100222.22;1638445;87;21061;-48
2022/07/01 06:37:35;;;;;;;6.87;2.95;;;;;;;25.65;50.86;100222.90;1638582;86;21129;-41
2022/07/01 06:40:03;;;;;;;3.65;2.55;;;;;;;25.71;51.66;100225.67;1638737;87;21560;-41
2022/07/01 06:42:31;;;;;;;3.95;2.47;;;;;;;25.78;51.33;100230.19;1635042;86;21128;-41
2022/07/01 06:44:57;;;;;;;11.70;2.33;;;;;;;25.81;50.68;100226.84;1636666;87;21479;-41
2022/07/01 06:47:24;;;;;;;5.78;2.35;;;;;;;25.84;50.53;100225.28;1638523;87;21125;-41
2022/07/01 06:49:51;;;;;;;3.92;2.20;;;;;;;25.92;49.42;100229.69;1638631;87;21045;-41
2022/07/01 06:52:18;;;;;;;8.68;2.30;;;;;;;25.99;47.75;100232.83;1638864;87;21120;-49
2022/07/01 06:54:44;;;;;;;2.70;1.80;;;;;;;26.03;48.57;100236.16;1638459;86;21034;-49
2022/07/01 06:57:11;;;;;;;3.77;2.02;;;;;;;26.10;48.42;100228.97;1638052;86;21732;-41
2022/07/01 06:59:38;;;;;;;3.12;2.05;;;;;;;26.21;47.70;100235.83;1638496;87;21530;-49
2022/07/01 07:02:07;;;;;;;2.08;1.72;;;;;;;26.31;46.93;100237.41;1638308;86;21624;-49
2022/07/01 07:04:34;;;;;;;4.55;1.85;;;;;;;26.42;46.35;100239.41;1636224;87;21536;-42
2022/07/01 07:07:02;;;;;;;4.70;2.08;;;;;;;26.52;45.64;100236.02;1635723;86;21613;-41
2022/07/01 07:09:29;;;;;;;4.20;1.92;;;;;;;26.59;45.12;100238.28;1638360;87;21025;-49
2022/07/01 07:11:56;;;;;;;2.85;1.92;;;;;;;26.64;44.45;100234.81;1636019;86;21113;-49
2022/07/01 07:14:22;;;;;;;5.25;2.37;;;;;;;26.66;44.91;100238.23;1628178;88;21402;-48
2022/07/01 07:16:51;;;;;;;2.87;2.65;;;;;;;26.66;44.13;100236.90;1618076;86;21092;-41
2022/07/01 07:19:17;;;;;;;7.20;2.40;;;;;;;26.62;44.55;100244.80;1633876;88;20994;-49
2022/07/01 07:21:44;;;;;;;3.62;2.40;;;;;;;26.60;43.79;100246.70;1633939;88;21057;-49
2022/07/01 07:24:11;;;;;;;3.05;2.25;;;;;;;26.62;44.67;100241.63;1633757;87;21066;-48
2022/07/01 07:26:37;;;;;;;2.98;2.27;;;;;;;26.74;44.50;100245.30;1633487;88;21049;-49
2022/07/01 07:29:04;;;;;;;5.40;2.70;;;;;;;26.84;44.58;100247.72;1633748;88;21456;-41
2022/07/01 07:31:30;;;;;;;5.97;2.67;;;;;;;26.87;43.19;100246.17;1634315;88;21862;-42
2022/07/01 07:33:58;;;;;;;2.65;2.10;;;;;;;26.86;42.81;100248.48;1634192;87;21077;-41
2022/07/01 07:36:24;;;;;;;6.33;2.52;;;;;;;26.83;42.90;100246.48;1634414;88;21033;-49
2022/07/01 07:38:51;;;;;;;4.90;2.27;;;;;;;26.79;42.99;100251.22;1634108;87;21687;-48
2022/07/01 07:41:18;;;;;;;2.65;2.12;;;;;;;26.78;43.13;100243.63;1634246;87;21132;-49
2022/07/01 07:43:45;;;;;;;5.95;2.22;;;;;;;26.90;43.97;100255.34;1634190;88;21627;-49
2022/07/01 07:46:12;;;;;;;2.00;1.82;;;;;;;27.02;43.59;100247.82;1634253;87;21140;-41
2022/07/01 07:48:39;;;;;;;6.87;1.80;;;;;;;27.11;43.07;100249.51;1634119;88;21164;-48
2022/07/01 07:51:07;;;;;;;6.42;2.20;;;;;;;27.08;42.79;100249.25;1631087;88;21034;-50
2022/07/01 07:53:34;;;;;;;2.55;2.02;;;;;;;27.00;42.92;100244.36;1610738;87;21105;-49
2022/07/01 07:56:00;;;;;;;3.17;2.17;;;;;;;27.00;43.19;100237.65;1609594;88;21626;-49
2022/07/01 07:58:27;;;;;;;2.45;2.12;;;;;;;27.08;43.56;100232.26;1633131;87;21073;-41
2022/07/01 08:00:54;;;;;;;10.60;2.12;;;;;;;27.16;44.22;100236.14;1633141;87;21070;-41
2022/07/01 08:03:20;;;;;;;4.15;1.85;;;;;;;27.28;43.75;100230.39;1633252;87;21444;-41
2022/07/01 08:10:29;;;;;;;3.40;1.90;;;;;;;27.70;43.44;100230.52;1799729;79;23178;-48
2022/07/01 08:12:57;;;;;;;2.47;1.98;;;;;;;27.79;42.81;100230.36;1756440;81;21032;-47
2022/07/01 08:15:24;;;;;;;2.10;1.90;;;;;;;27.94;42.01;100231.05;1751872;82;20950;-48
2022/07/01 08:17:50;;;;;;;2.35;2.10;;;;;;;28.08;41.57;100227.73;1751809;82;21080;-40
2022/07/01 08:20:18;;;;;;;6.62;2.37;;;;;;;28.23;42.01;100224.86;1751783;82;21036;-45
2022/07/01 08:22:47;;;;;;;4.75;2.12;;;;;;;28.30;41.18;100224.31;1751770;82;21033;-41
2022/07/01 08:25:14;;;;;;;4.25;2.37;;;;;;;28.33;41.45;100228.13;1751749;82;21064;-47
2022/07/01 08:27:41;;;;;;;2.08;1.87;;;;;;;28.28;41.30;100225.38;1751932;82;21053;-48
2022/07/01 08:30:09;;;;;;;8.30;2.25;;;;;;;28.16;40.30;100222.27;1752054;82;21052;-42
2022/07/01 08:32:35;;;;;;;4.22;2.17;;;;;;;27.90;40.80;100227.75;1752541;82;21064;-47
2022/07/01 08:35:03;;;;;;;3.05;2.20;;;;;;;27.71;42.19;100226.86;1743080;82;21442;-40
2022/07/01 08:37:29;;;;;;;4.25;2.20;;;;;;;27.73;43.05;100224.95;1737735;82;21068;-48
2022/07/01 08:39:56;;;;;;;2.85;2.10;;;;;;;27.92;41.91;100235.69;1737344;82;21002;-40
2022/07/01 08:42:23;;;;;;;6.60;1.80;;;;;;;28.10;41.64;100229.81;1747125;82;21639;-42
2022/07/01 08:44:49;;;;;;;4.05;2.08;;;;;;;28.27;41.05;100223.67;1744649;82;21510;-48
2022/07/01 08:47:16;;;;;;;2.65;1.62;;;;;;;28.36;41.21;100219.84;1737594;82;21639;-48
2022/07/01 08:49:42;;;;;;;2.17;1.98;;;;;;;28.43;40.99;100226.11;1737272;82;21095;-40
2022/07/01 08:52:09;;;;;;;5.87;2.00;;;;;;;28.43;40.15;100222.93;1737997;82;21074;-48
2022/07/01 08:54:39;;;;;;;3.52;2.00;;;;;;;28.37;40.32;100227.43;1715222;82;21080;-43
2022/07/01 08:57:07;;;;;;;5.83;1.80;;;;;;;28.22;40.34;100223.16;1738792;82;21448;-48
2022/07/01 08:59:34;;;;;;;3.47;2.20;;;;;;;28.00;41.77;100222.53;1742494;80;21017;-41
2022/07/01 09:02:06;;;;;;;2.33;1.82;;;;;;;27.76;40.43;100220.67;1715880;82;21064;-49
2022/07/01 09:04:33;;;;;;;;;;;;;;;27.62;42.22;100224.83;1749540;82;21040;-41
2022/07/01 09:07:08;;;;;;;2.55;1.82;;;;;;;27.57;42.71;100223.80;1752555;82;20124;-49
2022/07/01 09:09:37;;;;;;;5.47;1.60;;;;;;;27.56;42.28;100223.44;1747318;81;21078;-42
2022/07/01 09:12:05;;;;;;;2.85;1.98;;;;;;;27.65;43.21;100216.53;1740825;82;21503;-49
2022/07/01 09:14:33;;;;;;;5.37;1.82;;;;;;;27.81;42.45;100219.86;1740941;82;21066;-49
2022/07/01 09:17:03;;;;;;;2.35;1.92;;;;;;;27.99;43.92;100216.79;1746867;82;21003;-48
2022/07/01 09:19:34;;;;;;;3.80;1.62;;;;;;;28.13;42.61;100208.58;1753220;82;21013;-39
2022/07/01 09:22:01;;;;;;;4.20;1.70;;;;;;;28.25;42.29;100206.80;1752890;82;20977;-48
2022/07/01 09:24:39;;;;;;;5.12;1.90;;;;;;;28.29;42.40;100204.23;1753149;82;21020;-47
2022/07/01 09:27:13;;;;;;;5.83;1.72;;;;;;;28.35;41.72;100202.00;1753151;82;21013;-40
2022/07/01 09:29:44;;;;;;;5.33;1.98;;;;;;;28.29;41.42;100192.98;1752937;82;21496;-41
2022/07/01 09:32:12;;;;;;;5.60;1.70;;;;;;;28.25;41.53;100196.05;1753218;82;21039;-48
2022/07/01 09:34:42;;;;;;;2.37;1.67;;;;;;;28.24;41.78;100188.95;1752918;82;21574;-41
2022/07/01 09:37:19;;;;;;;4.97;1.75;;;;;;;28.25;42.72;100205.45;1752888;82;21132;-40
2022/07/01 09:39:50;;;;;;;4.78;1.72;;;;;;;28.30;41.89;100196.07;1752002;82;21081;-48
2022/07/01 09:42:19;;;;;;;1.85;1.50;;;;;;;28.34;41.00;100190.84;1753248;82;21088;-48
2022/07/01 09:44:58;;;;;;;2.72;1.80;;;;;;;28.34;41.54;100191.33;1752911;82;21072;-41
2022/07/01 09:47:27;;;;;;;4.97;1.55;;;;;;;28.43;41.08;100191.14;1753021;82;21061;-41
2022/07/01 09:49:54;;;;;;;1.92;1.82;;;;;;;28.57;40.74;100187.75;1752906;82;21045;-41
2022/07/01 09:52:22;;;;;;;5.85;1.82;;;;;;;28.72;41.39;100188.41;1753303;82;21041;-41
2022/07/01 09:54:49;;;;;;;1.92;1.72;;;;;;;28.85;40.32;100179.75;1752724;82;21041;-42
2022/07/01 09:57:18;;;;;;;2.65;1.90;;;;;;;28.92;40.14;100174.73;1752915;82;21037;-42
2022/07/01 09:59:45;;;;;;;2.90;1.90;;;;;;;28.96;40.80;100175.40;1752679;82;21029;-41
2022/07/01 10:02:12;;;;;;;9.23;2.08;;;;;;;28.97;40.38;100183.84;1752873;82;21112;-42
2022/07/01 10:04:42;;;;;;;2.72;2.02;;;;;;;28.99;40.04;100180.06;1752896;81;21106;-41
2022/07/01 10:07:39;;;;;;;7.35;1.90;;;;;;;28.98;40.86;100174.78;1752937;82;21183;-41
2022/07/01 10:10:24;;;;;;;6.70;2.35;;;;;;;28.82;39.25;100171.92;1752795;81;21598;-42
2022/07/01 10:12:53;;;;;;;9.08;2.15;;;;;;;28.63;40.71;100167.09;1752609;81;21013;-49
2022/07/01 10:15:20;;;;;;;5.85;2.08;;;;;;;28.55;40.90;100169.53;1752414;82;21037;-41
2022/07/01 10:17:48;;;;;;;3.50;1.92;;;;;;;28.59;40.68;100166.98;1752713;82;21489;-48
2022/07/01 10:20:18;;;;;;;3.95;2.00;;;;;;;28.69;40.10;100156.83;1752617;82;21564;-41
2022/07/01 10:22:46;;;;;;;3.37;1.98;;;;;;;28.82;40.17;100153.58;1752731;82;21556;-50
2022/07/01 10:25:34;;;;;;;3.72;1.82;;;;;;;28.92;41.63;100153.69;1752891;82;21032;-42
2022/07/01 10:28:22;;;;;;;5.40;1.77;;;;;;;29.00;41.48;100150.81;1752900;82;21588;-42
2022/07/01 10:30:57;;;;;;;5.03;1.80;;;;;;;29.11;41.77;100152.16;1741344;82;21075;-48
2022/07/01 10:33:52;;;;;;;7.42;2.02;;;;;;;29.18;40.44;100151.67;1740238;82;21071;-41
2022/07/01 10:36:28;;;;;;;4.40;2.00;;;;;;;29.15;41.73;100150.92;1662961;86;21114;-49
2022/07/01 10:39:13;;;;;;;6.87;2.12;;;;;;;29.26;41.44;100149.21;1663022;86;21078;-41
2022/07/01 10:41:44;;;;;;;3.35;1.98;;;;;;;29.49;39.50;100143.31;1669209;86;21378;-41
2022/07/01 10:44:12;;;;;;;9.68;2.27;;;;;;;29.73;40.44;100136.44;1667440;84;21082;-41
2022/07/01 10:46:49;;;;;;;4.28;1.85;;;;;;;29.67;39.96;100139.14;1669489;86;21022;-48
2022/07/01 10:49:18;;;;;;;3.58;2.15;;;;;;;29.68;39.24;100132.77;1669268;86;21110;-49
2022/07/01 10:51:52;;;;;;;3.17;2.08;;;;;;;29.70;39.69;100128.13;1669469;86;21085;-41
2022/07/01 10:54:45;;;;;;;3.58;2.05;;;;;;;29.57;39.26;100126.94;1669393;86;21977;-41
2022/07/01 10:57:22;;;;;;;4.00;1.70;;;;;;;29.44;40.14;100123.47;1669482;86;21098;-49
2022/07/01 11:00:04;;;;;;;6.30;1.82;;;;;;;29.52;39.34;100126.45;1669629;86;21074;-49
2022/07/01 11:02:37;;;;;;;2.30;2.05;;;;;;;29.69;39.09;100121.03;1648640;87;21584;-49
2022/07/01 11:05:13;;;;;;;5.87;1.85;;;;;;;29.88;38.83;100117.16;1648042;87;21098;-49
2022/07/01 11:07:45;;;;;;;2.17;1.98;;;;;;;29.98;38.60;100116.38;1648791;87;21074;-49
2022/07/01 11:10:15;;;;;;;4.08;2.40;;;;;;;29.93;38.31;100114.94;1648957;86;21090;-41
2022/07/01 11:12:44;;;;;;;3.05;1.80;;;;;;;29.72;38.23;100114.02;1658402;86;21554;-41
2022/07/01 11:15:12;;;;;;;2.10;2.00;;;;;;;29.66;39.43;100111.34;1657743;86;21031;-41
2022/07/01 11:17:44;;;;;;;3.30;1.80;;;;;;;29.62;39.52;100107.17;1657758;86;21060;-42
2022/07/01 11:20:11;;;;;;;4.87;2.40;;;;;;;29.72;39.49;100100.55;1657857;86;21016;-49
2022/07/01 11:22:38;;;;;;;3.47;1.90;;;;;;;29.86;38.89;100100.73;1657779;86;21075;-41
2022/07/01 11:25:09;;;;;;;2.72;1.95;;;;;;;29.90;38.72;100096.30;1657525;86;21047;-41
2022/07/01 11:27:36;;;;;;;5.50;2.00;;;;;;;29.91;39.01;100098.51;1657589;86;21067;-49
2022/07/01 11:30:09;;;;;;;3.37;1.80;;;;;;;29.91;38.88;100093.97;1657880;86;21630;-41
2022/07/01 11:32:37;;;;;;;1.75;1.65;;;;;;;29.92;38.12;100087.62;1658081;86;21075;-49
2022/07/01 11:40:37;;;;;;;2.95;2.02;;;;;;;29.87;39.04;100081.75;1676157;84;21099;-48
2022/07/01 11:43:27;;;;;;;4.42;2.25;;;;;;;29.87;38.41;100082.25;1700546;84;21055;-48
2022/07/01 11:45:53;;;;;;;2.77;1.55;;;;;;;29.76;38.41;100080.94;1707248;84;21082;-42
2022/07/01 11:48:35;;;;;;;5.75;1.82;;;;;;;29.66;38.22;100081.69;1707720;84;21026;-48
2022/07/01 11:51:08;;;;;;;5.57;1.97;;;;;;;29.67;38.56;100080.70;1685961;85;21095;-42
2022/07/01 11:53:35;;;;;;;3.40;2.10;;;;;;;29.70;39.08;100079.61;1684494;84;21020;-42
2022/07/01 11:56:03;;;;;;;2.60;2.10;;;;;;;29.66;38.74;100074.09;1673696;86;21091;-41
2022/07/01 11:58:48;;;;;;;3.75;2.05;;;;;;;29.63;38.56;100071.18;1673923;86;21643;-48
2022/07/01 12:01:31;;;;;;;6.28;2.12;;;;;;;29.59;38.57;100067.52;1688504;85;21052;-39
2022/07/01 12:04:00;;;;;;;5.22;2.10;;;;;;;29.48;39.07;100076.45;1691098;84;21026;-40
2022/07/01 12:06:26;;;;;;;5.22;2.47;;;;;;;29.46;39.59;100077.08;1707899;84;21066;-47
2022/07/01 12:08:54;;;;;;;3.08;2.22;;;;;;;29.47;39.03;100067.15;1708659;84;21699;-39
2022/07/01 12:11:21;;;;;;;7.65;2.37;;;;;;;29.48;38.99;100070.20;1736847;82;21104;-47
2022/07/01 12:13:49;;;;;;;4.08;2.40;;;;;;;29.50;39.55;100073.12;1752858;82;21076;-40
2022/07/01 12:16:16;;;;;;;9.33;2.47;;;;;;;29.47;39.45;100073.89;1752879;82;21564;-47
2022/07/01 12:19:00;;;;;;;7.97;2.15;;;;;;;29.44;39.60;100069.58;1730822;82;21048;-39
2022/07/01 12:21:29;;;;;;;3.65;2.10;;;;;;;29.45;39.65;100076.68;1728576;82;21022;-48
